sensor_id;sensor_type;location;lat;lon;timestamp;P1;durP1;ratioP1;P2;durP2;ratioP2
58637;SDS011;54976;51.510;7.522;2023-02-23T00:01:41;78.30;;;43.15;;
58637;SDS011;54976;51.510;7.522;2023-02-23T00:04:41;79.85;;;43.33;;
58637;SDS011;54976;51.510;7.522;2023-02-23T00:07:42;84.05;;;45.42;;
58637;SDS011;54976;51.510;7.522;2023-02-23T00:10:44;84.35;;;44.30;;
58637;SDS011;54976;51.510;7.522;2023-02-23T00:13:45;96.10;;;44.30;;
58637;SDS011;54976;51.510;7.522;2023-02-23T00:16:49;89.00;;;46.22;;
58637;SDS011;54976;51.510;7.522;2023-02-23T00:19:50;89.85;;;45.47;;
58637;SDS011;54976;51.510;7.522;2023-02-23T00:22:54;86.20;;;45.03;;
58637;SDS011;54976;51.510;7.522;2023-02-23T00:25:55;83.15;;;44.05;;
58637;SDS011;54976;51.510;7.522;2023-02-23T00:28:58;95.40;;;46.25;;
58637;SDS011;54976;51.510;7.522;2023-02-23T00:31:59;85.25;;;46.70;;
58637;SDS011;54976;51.510;7.522;2023-02-23T00:35:00;80.85;;;42.20;;
58637;SDS011;54976;51.510;7.522;2023-02-23T00:38:00;96.43;;;46.90;;
58637;SDS011;54976;51.510;7.522;2023-02-23T00:41:08;88.32;;;45.28;;
58637;SDS011;54976;51.510;7.522;2023-02-23T00:44:12;93.72;;;46.30;;
58637;SDS011;54976;51.510;7.522;2023-02-23T00:47:15;86.57;;;44.78;;
58637;SDS011;54976;51.510;7.522;2023-02-23T00:50:16;87.10;;;45.63;;
58637;SDS011;54976;51.510;7.522;2023-02-23T00:53:17;89.90;;;45.22;;
58637;SDS011;54976;51.510;7.522;2023-02-23T00:56:18;91.05;;;46.50;;
58637;SDS011;54976;51.510;7.522;2023-02-23T00:59:18;92.80;;;48.22;;
58637;SDS011;54976;51.510;7.522;2023-02-23T01:02:19;98.93;;;47.38;;
58637;SDS011;54976;51.510;7.522;2023-02-23T01:05:20;104.90;;;48.97;;
58637;SDS011;54976;51.510;7.522;2023-02-23T01:08:21;98.90;;;48.13;;
58637;SDS011;54976;51.510;7.522;2023-02-23T01:11:23;113.20;;;51.05;;
58637;SDS011;54976;51.510;7.522;2023-02-23T01:14:29;101.25;;;50.05;;
58637;SDS011;54976;51.510;7.522;2023-02-23T01:17:30;105.95;;;50.90;;
58637;SDS011;54976;51.510;7.522;2023-02-23T01:20:32;102.80;;;50.55;;
58637;SDS011;54976;51.510;7.522;2023-02-23T01:23:35;122.57;;;54.97;;
58637;SDS011;54976;51.510;7.522;2023-02-23T01:26:36;115.22;;;53.80;;
58637;SDS011;54976;51.510;7.522;2023-02-23T01:29:38;121.43;;;54.08;;
58637;SDS011;54976;51.510;7.522;2023-02-23T01:32:39;116.18;;;54.35;;
58637;SDS011;54976;51.510;7.522;2023-02-23T01:35:41;132.45;;;56.17;;
58637;SDS011;54976;51.510;7.522;2023-02-23T01:38:42;129.43;;;53.80;;
58637;SDS011;54976;51.510;7.522;2023-02-23T01:41:43;136.40;;;56.95;;
58637;SDS011;54976;51.510;7.522;2023-02-23T01:47:44;141.82;;;57.80;;
58637;SDS011;54976;51.510;7.522;2023-02-23T01:50:51;133.75;;;57.90;;
58637;SDS011;54976;51.510;7.522;2023-02-23T01:54:00;135.65;;;58.03;;
58637;SDS011;54976;51.510;7.522;2023-02-23T01:57:05;133.82;;;57.70;;
58637;SDS011;54976;51.510;7.522;2023-02-23T02:03:14;139.10;;;56.65;;
58637;SDS011;54976;51.510;7.522;2023-02-23T02:06:37;145.63;;;59.65;;
58637;SDS011;54976;51.510;7.522;2023-02-23T02:09:40;147.35;;;59.03;;
58637;SDS011;54976;51.510;7.522;2023-02-23T02:13:02;152.15;;;58.33;;
58637;SDS011;54976;51.510;7.522;2023-02-23T02:16:08;152.85;;;61.22;;
58637;SDS011;54976;51.510;7.522;2023-02-23T02:43:21;168.27;;;59.97;;
58637;SDS011;54976;51.510;7.522;2023-02-23T02:46:48;167.30;;;58.53;;
58637;SDS011;54976;51.510;7.522;2023-02-23T02:50:09;183.50;;;61.60;;
58637;SDS011;54976;51.510;7.522;2023-02-23T02:53:35;183.85;;;63.95;;
58637;SDS011;54976;51.510;7.522;2023-02-23T02:56:44;164.70;;;63.33;;
58637;SDS011;54976;51.510;7.522;2023-02-23T02:59:48;152.88;;;60.72;;
58637;SDS011;54976;51.510;7.522;2023-02-23T03:03:26;163.48;;;59.38;;
58637;SDS011;54976;51.510;7.522;2023-02-23T03:06:51;164.05;;;63.28;;
58637;SDS011;54976;51.510;7.522;2023-02-23T03:20:42;166.52;;;61.30;;
58637;SDS011;54976;51.510;7.522;2023-02-23T03:27:46;170.55;;;60.20;;
58637;SDS011;54976;51.510;7.522;2023-02-23T03:31:27;153.02;;;59.92;;
58637;SDS011;54976;51.510;7.522;2023-02-23T03:35:08;166.40;;;61.28;;
58637;SDS011;54976;51.510;7.522;2023-02-23T03:38:35;184.55;;;65.05;;
58637;SDS011;54976;51.510;7.522;2023-02-23T03:42:20;195.27;;;65.18;;
58637;SDS011;54976;51.510;7.522;2023-02-23T03:45:45;199.90;;;65.15;;
58637;SDS011;54976;51.510;7.522;2023-02-23T03:49:06;199.15;;;64.93;;
58637;SDS011;54976;51.510;7.522;2023-02-23T03:52:31;189.07;;;62.90;;
58637;SDS011;54976;51.510;7.522;2023-02-23T03:55:55;236.27;;;67.43;;
58637;SDS011;54976;51.510;7.522;2023-02-23T03:59:17;183.45;;;60.00;;
58637;SDS011;54976;51.510;7.522;2023-02-23T04:02:41;180.02;;;63.00;;
58637;SDS011;54976;51.510;7.522;2023-02-23T04:06:06;227.20;;;67.90;;
58637;SDS011;54976;51.510;7.522;2023-02-23T04:09:29;194.40;;;62.22;;
58637;SDS011;54976;51.510;7.522;2023-02-23T04:16:13;163.55;;;60.47;;
58637;SDS011;54976;51.510;7.522;2023-02-23T04:19:14;176.38;;;62.20;;
58637;SDS011;54976;51.510;7.522;2023-02-23T04:22:14;250.32;;;69.32;;
58637;SDS011;54976;51.510;7.522;2023-02-23T04:25:15;200.60;;;63.03;;
58637;SDS011;54976;51.510;7.522;2023-02-23T04:28:22;203.02;;;65.00;;
58637;SDS011;54976;51.510;7.522;2023-02-23T04:31:25;211.07;;;66.32;;
58637;SDS011;54976;51.510;7.522;2023-02-23T04:34:25;213.90;;;64.00;;
58637;SDS011;54976;51.510;7.522;2023-02-23T04:37:26;216.00;;;66.57;;
58637;SDS011;54976;51.510;7.522;2023-02-23T04:40:26;176.65;;;60.70;;
58637;SDS011;54976;51.510;7.522;2023-02-23T04:43:27;198.15;;;64.40;;
58637;SDS011;54976;51.510;7.522;2023-02-23T04:46:28;187.13;;;62.25;;
58637;SDS011;54976;51.510;7.522;2023-02-23T04:49:29;246.05;;;68.65;;
58637;SDS011;54976;51.510;7.522;2023-02-23T04:52:30;185.35;;;65.13;;
58637;SDS011;54976;51.510;7.522;2023-02-23T04:55:31;179.25;;;64.30;;
58637;SDS011;54976;51.510;7.522;2023-02-23T04:58:31;163.48;;;62.50;;
58637;SDS011;54976;51.510;7.522;2023-02-23T05:01:32;193.95;;;67.05;;
58637;SDS011;54976;51.510;7.522;2023-02-23T05:04:33;168.77;;;63.20;;
58637;SDS011;54976;51.510;7.522;2023-02-23T05:07:34;155.80;;;61.20;;
58637;SDS011;54976;51.510;7.522;2023-02-23T05:10:36;180.50;;;64.03;;
58637;SDS011;54976;51.510;7.522;2023-02-23T05:13:37;191.23;;;64.68;;
58637;SDS011;54976;51.510;7.522;2023-02-23T05:16:37;176.25;;;64.15;;
58637;SDS011;54976;51.510;7.522;2023-02-23T05:19:38;163.73;;;63.75;;
58637;SDS011;54976;51.510;7.522;2023-02-23T05:22:39;185.55;;;64.38;;
58637;SDS011;54976;51.510;7.522;2023-02-23T05:25:40;168.23;;;62.10;;
58637;SDS011;54976;51.510;7.522;2023-02-23T05:28:41;192.65;;;65.78;;
58637;SDS011;54976;51.510;7.522;2023-02-23T05:31:42;173.82;;;62.33;;
58637;SDS011;54976;51.510;7.522;2023-02-23T05:34:42;183.18;;;63.55;;
58637;SDS011;54976;51.510;7.522;2023-02-23T05:37:43;180.30;;;61.30;;
58637;SDS011;54976;51.510;7.522;2023-02-23T05:40:44;167.50;;;61.47;;
58637;SDS011;54976;51.510;7.522;2023-02-23T05:43:45;190.77;;;62.95;;
58637;SDS011;54976;51.510;7.522;2023-02-23T05:46:46;157.75;;;59.72;;
58637;SDS011;54976;51.510;7.522;2023-02-23T05:49:47;163.38;;;60.88;;
58637;SDS011;54976;51.510;7.522;2023-02-23T05:52:47;148.57;;;58.28;;
58637;SDS011;54976;51.510;7.522;2023-02-23T05:55:48;159.57;;;60.47;;
58637;SDS011;54976;51.510;7.522;2023-02-23T05:58:49;215.27;;;64.28;;
58637;SDS011;54976;51.510;7.522;2023-02-23T06:01:51;232.90;;;67.65;;
58637;SDS011;54976;51.510;7.522;2023-02-23T06:04:52;185.80;;;62.70;;
58637;SDS011;54976;51.510;7.522;2023-02-23T06:07:52;165.68;;;61.35;;
58637;SDS011;54976;51.510;7.522;2023-02-23T06:10:53;216.88;;;64.28;;
58637;SDS011;54976;51.510;7.522;2023-02-23T06:13:53;168.98;;;60.63;;
58637;SDS011;54976;51.510;7.522;2023-02-23T06:16:54;204.27;;;64.63;;
58637;SDS011;54976;51.510;7.522;2023-02-23T06:19:55;174.52;;;59.35;;
58637;SDS011;54976;51.510;7.522;2023-02-23T06:22:56;169.20;;;59.67;;
58637;SDS011;54976;51.510;7.522;2023-02-23T06:25:56;190.82;;;65.15;;
58637;SDS011;54976;51.510;7.522;2023-02-23T06:28:58;169.38;;;60.45;;
58637;SDS011;54976;51.510;7.522;2023-02-23T06:31:59;182.77;;;61.42;;
58637;SDS011;54976;51.510;7.522;2023-02-23T06:34:59;165.98;;;60.67;;
58637;SDS011;54976;51.510;7.522;2023-02-23T06:38:00;200.38;;;64.72;;
58637;SDS011;54976;51.510;7.522;2023-02-23T06:41:08;177.82;;;58.90;;
58637;SDS011;54976;51.510;7.522;2023-02-23T06:44:10;161.43;;;59.05;;
58637;SDS011;54976;51.510;7.522;2023-02-23T06:47:10;161.88;;;59.53;;
58637;SDS011;54976;51.510;7.522;2023-02-23T06:50:11;186.57;;;57.63;;
58637;SDS011;54976;51.510;7.522;2023-02-23T06:53:12;173.20;;;55.72;;
58637;SDS011;54976;51.510;7.522;2023-02-23T06:56:12;188.02;;;58.35;;
58637;SDS011;54976;51.510;7.522;2023-02-23T06:59:13;182.27;;;56.28;;
58637;SDS011;54976;51.510;7.522;2023-02-23T07:02:14;202.48;;;58.28;;
58637;SDS011;54976;51.510;7.522;2023-02-23T07:05:15;184.73;;;59.00;;
58637;SDS011;54976;51.510;7.522;2023-02-23T07:08:16;198.73;;;59.90;;
58637;SDS011;54976;51.510;7.522;2023-02-23T07:11:17;174.48;;;59.42;;
58637;SDS011;54976;51.510;7.522;2023-02-23T07:14:18;216.73;;;61.50;;
58637;SDS011;54976;51.510;7.522;2023-02-23T07:17:19;188.48;;;58.25;;
58637;SDS011;54976;51.510;7.522;2023-02-23T07:20:20;168.18;;;56.60;;
58637;SDS011;54976;51.510;7.522;2023-02-23T07:23:20;178.85;;;58.78;;
58637;SDS011;54976;51.510;7.522;2023-02-23T07:26:21;177.13;;;57.92;;
58637;SDS011;54976;51.510;7.522;2023-02-23T07:29:22;168.43;;;57.25;;
58637;SDS011;54976;51.510;7.522;2023-02-23T07:32:23;203.15;;;60.13;;
58637;SDS011;54976;51.510;7.522;2023-02-23T07:35:23;155.48;;;56.65;;
58637;SDS011;54976;51.510;7.522;2023-02-23T07:38:24;170.95;;;59.25;;
58637;SDS011;54976;51.510;7.522;2023-02-23T07:41:25;168.65;;;58.25;;
58637;SDS011;54976;51.510;7.522;2023-02-23T07:44:25;164.10;;;57.08;;
58637;SDS011;54976;51.510;7.522;2023-02-23T07:47:26;138.00;;;55.45;;
58637;SDS011;54976;51.510;7.522;2023-02-23T07:50:30;151.07;;;52.38;;
58637;SDS011;54976;51.510;7.522;2023-02-23T07:53:30;160.75;;;55.30;;
58637;SDS011;54976;51.510;7.522;2023-02-23T07:56:31;146.25;;;54.97;;
58637;SDS011;54976;51.510;7.522;2023-02-23T07:59:32;163.40;;;55.08;;
58637;SDS011;54976;51.510;7.522;2023-02-23T08:02:33;155.85;;;55.95;;
58637;SDS011;54976;51.510;7.522;2023-02-23T08:05:34;164.57;;;57.72;;
58637;SDS011;54976;51.510;7.522;2023-02-23T08:08:35;173.63;;;56.78;;
58637;SDS011;54976;51.510;7.522;2023-02-23T08:11:36;150.23;;;56.47;;
58637;SDS011;54976;51.510;7.522;2023-02-23T08:14:37;163.15;;;55.15;;
58637;SDS011;54976;51.510;7.522;2023-02-23T08:17:38;151.90;;;55.25;;
58637;SDS011;54976;51.510;7.522;2023-02-23T08:20:40;143.13;;;54.42;;
58637;SDS011;54976;51.510;7.522;2023-02-23T08:23:40;131.50;;;51.13;;
58637;SDS011;54976;51.510;7.522;2023-02-23T08:26:41;134.10;;;52.63;;
58637;SDS011;54976;51.510;7.522;2023-02-23T08:29:43;143.27;;;53.25;;
58637;SDS011;54976;51.510;7.522;2023-02-23T08:32:44;168.70;;;56.92;;
58637;SDS011;54976;51.510;7.522;2023-02-23T08:35:45;144.07;;;53.30;;
58637;SDS011;54976;51.510;7.522;2023-02-23T08:38:45;161.82;;;54.85;;
58637;SDS011;54976;51.510;7.522;2023-02-23T08:41:46;130.27;;;52.42;;
58637;SDS011;54976;51.510;7.522;2023-02-23T08:44:47;119.20;;;49.38;;
58637;SDS011;54976;51.510;7.522;2023-02-23T08:47:50;146.35;;;52.67;;
58637;SDS011;54976;51.510;7.522;2023-02-23T08:50:57;126.22;;;51.20;;
58637;SDS011;54976;51.510;7.522;2023-02-23T08:53:58;155.55;;;52.35;;
58637;SDS011;54976;51.510;7.522;2023-02-23T08:56:59;124.40;;;49.47;;
58637;SDS011;54976;51.510;7.522;2023-02-23T09:00:00;125.40;;;48.30;;
58637;SDS011;54976;51.510;7.522;2023-02-23T09:03:02;127.35;;;50.85;;
58637;SDS011;54976;51.510;7.522;2023-02-23T09:06:06;167.85;;;54.42;;
58637;SDS011;54976;51.510;7.522;2023-02-23T09:09:09;115.55;;;45.90;;
58637;SDS011;54976;51.510;7.522;2023-02-23T09:12:09;101.18;;;42.50;;
58637;SDS011;54976;51.510;7.522;2023-02-23T09:15:10;117.72;;;42.75;;
58637;SDS011;54976;51.510;7.522;2023-02-23T09:18:11;105.68;;;43.90;;
58637;SDS011;54976;51.510;7.522;2023-02-23T09:21:15;112.70;;;44.33;;
58637;SDS011;54976;51.510;7.522;2023-02-23T09:24:18;107.82;;;45.53;;
58637;SDS011;54976;51.510;7.522;2023-02-23T09:27:20;131.60;;;48.35;;
58637;SDS011;54976;51.510;7.522;2023-02-23T09:30:21;114.80;;;47.08;;
58637;SDS011;54976;51.510;7.522;2023-02-23T09:33:21;125.38;;;49.78;;
58637;SDS011;54976;51.510;7.522;2023-02-23T09:36:23;109.85;;;48.38;;
58637;SDS011;54976;51.510;7.522;2023-02-23T09:39:25;113.13;;;48.45;;
58637;SDS011;54976;51.510;7.522;2023-02-23T09:45:37;115.78;;;47.92;;
58637;SDS011;54976;51.510;7.522;2023-02-23T09:48:41;130.55;;;50.17;;
58637;SDS011;54976;51.510;7.522;2023-02-23T09:51:44;101.95;;;45.70;;
58637;SDS011;54976;51.510;7.522;2023-02-23T09:54:47;100.57;;;44.05;;
58637;SDS011;54976;51.510;7.522;2023-02-23T09:57:48;90.10;;;41.90;;
58637;SDS011;54976;51.510;7.522;2023-02-23T10:00:52;96.43;;;42.40;;
58637;SDS011;54976;51.510;7.522;2023-02-23T10:07:53;84.93;;;41.27;;
58637;SDS011;54976;51.510;7.522;2023-02-23T10:11:01;86.57;;;40.80;;
58637;SDS011;54976;51.510;7.522;2023-02-23T10:27:48;91.38;;;42.00;;
58637;SDS011;54976;51.510;7.522;2023-02-23T10:30:49;84.68;;;38.88;;
58637;SDS011;54976;51.510;7.522;2023-02-23T10:33:57;91.78;;;39.95;;
58637;SDS011;54976;51.510;7.522;2023-02-23T10:37:02;74.78;;;35.55;;
58637;SDS011;54976;51.510;7.522;2023-02-23T10:40:05;83.45;;;35.65;;
58637;SDS011;54976;51.510;7.522;2023-02-23T10:43:08;81.88;;;34.45;;
58637;SDS011;54976;51.510;7.522;2023-02-23T10:46:11;85.05;;;36.80;;
58637;SDS011;54976;51.510;7.522;2023-02-23T10:49:20;81.53;;;34.60;;
58637;SDS011;54976;51.510;7.522;2023-02-23T10:52:40;89.70;;;36.70;;
58637;SDS011;54976;51.510;7.522;2023-02-23T10:55:45;80.05;;;34.58;;
58637;SDS011;54976;51.510;7.522;2023-02-23T10:58:47;78.43;;;32.90;;
58637;SDS011;54976;51.510;7.522;2023-02-23T11:01:50;61.78;;;29.08;;
58637;SDS011;54976;51.510;7.522;2023-02-23T11:04:52;75.70;;;32.17;;
58637;SDS011;54976;51.510;7.522;2023-02-23T11:08:16;78.05;;;31.67;;
58637;SDS011;54976;51.510;7.522;2023-02-23T11:11:25;67.82;;;30.60;;
58637;SDS011;54976;51.510;7.522;2023-02-23T11:14:30;70.43;;;30.83;;
58637;SDS011;54976;51.510;7.522;2023-02-23T11:20:38;82.93;;;31.42;;
58637;SDS011;54976;51.510;7.522;2023-02-23T11:23:40;68.45;;;29.80;;
58637;SDS011;54976;51.510;7.522;2023-02-23T11:26:42;68.30;;;31.73;;
58637;SDS011;54976;51.510;7.522;2023-02-23T11:29:44;62.53;;;29.00;;
58637;SDS011;54976;51.510;7.522;2023-02-23T11:32:49;58.92;;;27.55;;
58637;SDS011;54976;51.510;7.522;2023-02-23T11:35:58;60.13;;;27.95;;
58637;SDS011;54976;51.510;7.522;2023-02-23T11:39:19;59.47;;;25.48;;
58637;SDS011;54976;51.510;7.522;2023-02-23T11:42:26;53.05;;;24.08;;
58637;SDS011;54976;51.510;7.522;2023-02-23T11:45:38;54.20;;;24.70;;
58637;SDS011;54976;51.510;7.522;2023-02-23T11:51:49;49.70;;;22.73;;
58637;SDS011;54976;51.510;7.522;2023-02-23T11:54:52;46.13;;;22.60;;
58637;SDS011;54976;51.510;7.522;2023-02-23T11:58:16;67.28;;;28.92;;
58637;SDS011;54976;51.510;7.522;2023-02-23T12:01:44;85.32;;;34.78;;
58637;SDS011;54976;51.510;7.522;2023-02-23T12:04:49;93.63;;;35.15;;
58637;SDS011;54976;51.510;7.522;2023-02-23T12:11:36;89.53;;;32.50;;
58637;SDS011;54976;51.510;7.522;2023-02-23T12:14:48;86.53;;;32.75;;
58637;SDS011;54976;51.510;7.522;2023-02-23T12:17:54;85.97;;;30.25;;
58637;SDS011;54976;51.510;7.522;2023-02-23T12:21:01;87.00;;;31.42;;
58637;SDS011;54976;51.510;7.522;2023-02-23T12:27:28;80.30;;;29.10;;
58637;SDS011;54976;51.510;7.522;2023-02-23T12:30:57;79.90;;;30.30;;
58637;SDS011;54976;51.510;7.522;2023-02-23T12:34:04;78.28;;;29.90;;
58637;SDS011;54976;51.510;7.522;2023-02-23T12:40:29;84.13;;;30.77;;
58637;SDS011;54976;51.510;7.522;2023-02-23T12:43:38;81.53;;;29.48;;
58637;SDS011;54976;51.510;7.522;2023-02-23T12:46:58;78.35;;;29.30;;
58637;SDS011;54976;51.510;7.522;2023-02-23T12:53:38;71.85;;;27.15;;
58637;SDS011;54976;51.510;7.522;2023-02-23T12:56:54;71.03;;;26.42;;
58637;SDS011;54976;51.510;7.522;2023-02-23T13:00:24;72.93;;;26.80;;
58637;SDS011;54976;51.510;7.522;2023-02-23T13:09:51;79.65;;;29.15;;
58637;SDS011;54976;51.510;7.522;2023-02-23T13:16:24;75.07;;;27.08;;
58637;SDS011;54976;51.510;7.522;2023-02-23T13:22:44;65.90;;;26.45;;
58637;SDS011;54976;51.510;7.522;2023-02-23T13:32:28;51.67;;;20.40;;
58637;SDS011;54976;51.510;7.522;2023-02-23T13:38:52;49.90;;;19.45;;
58637;SDS011;54976;51.510;7.522;2023-02-23T13:42:32;45.13;;;19.30;;
58637;SDS011;54976;51.510;7.522;2023-02-23T13:49:01;58.70;;;23.00;;
58637;SDS011;54976;51.510;7.522;2023-02-23T13:52:41;48.70;;;20.30;;
58637;SDS011;54976;51.510;7.522;2023-02-23T13:55:44;54.55;;;21.83;;
58637;SDS011;54976;51.510;7.522;2023-02-23T13:59:00;59.00;;;24.15;;
58637;SDS011;54976;51.510;7.522;2023-02-23T14:05:25;54.90;;;23.60;;
58637;SDS011;54976;51.510;7.522;2023-02-23T14:11:47;52.25;;;23.27;;
58637;SDS011;54976;51.510;7.522;2023-02-23T14:17:59;59.22;;;23.05;;
58637;SDS011;54976;51.510;7.522;2023-02-23T14:27:22;55.10;;;21.60;;
58637;SDS011;54976;51.510;7.522;2023-02-23T14:30:43;53.40;;;20.73;;
58637;SDS011;54976;51.510;7.522;2023-02-23T14:33:51;52.58;;;20.25;;
58637;SDS011;54976;51.510;7.522;2023-02-23T14:36:56;58.47;;;21.58;;
58637;SDS011;54976;51.510;7.522;2023-02-23T14:40:16;59.13;;;21.20;;
58637;SDS011;54976;51.510;7.522;2023-02-23T14:46:37;58.75;;;21.10;;
58637;SDS011;54976;51.510;7.522;2023-02-23T14:49:48;58.33;;;22.48;;
58637;SDS011;54976;51.510;7.522;2023-02-23T14:52:57;67.72;;;22.60;;
58637;SDS011;54976;51.510;7.522;2023-02-23T14:56:00;64.40;;;23.10;;
58637;SDS011;54976;51.510;7.522;2023-02-23T14:59:00;70.80;;;23.98;;
58637;SDS011;54976;51.510;7.522;2023-02-23T15:02:06;78.18;;;24.38;;
58637;SDS011;54976;51.510;7.522;2023-02-23T15:05:16;58.75;;;20.80;;
58637;SDS011;54976;51.510;7.522;2023-02-23T15:08:17;62.67;;;22.35;;
58637;SDS011;54976;51.510;7.522;2023-02-23T15:11:23;77.55;;;23.05;;
58637;SDS011;54976;51.510;7.522;2023-02-23T15:14:24;77.38;;;26.13;;
58637;SDS011;54976;51.510;7.522;2023-02-23T15:17:26;59.65;;;21.65;;
58637;SDS011;54976;51.510;7.522;2023-02-23T15:20:32;58.47;;;18.95;;
58637;SDS011;54976;51.510;7.522;2023-02-23T15:23:34;59.65;;;21.65;;
58637;SDS011;54976;51.510;7.522;2023-02-23T15:29:40;62.05;;;20.65;;
58637;SDS011;54976;51.510;7.522;2023-02-23T15:32:40;59.97;;;20.73;;
58637;SDS011;54976;51.510;7.522;2023-02-23T15:35:42;55.47;;;20.35;;
58637;SDS011;54976;51.510;7.522;2023-02-23T15:38:48;61.58;;;20.40;;
58637;SDS011;54976;51.510;7.522;2023-02-23T15:41:52;55.67;;;20.20;;
58637;SDS011;54976;51.510;7.522;2023-02-23T15:44:54;67.55;;;21.17;;
58637;SDS011;54976;51.510;7.522;2023-02-23T15:47:58;53.13;;;19.17;;
58637;SDS011;54976;51.510;7.522;2023-02-23T15:51:04;51.22;;;20.48;;
58637;SDS011;54976;51.510;7.522;2023-02-23T15:54:53;54.38;;;19.27;;
58637;SDS011;54976;51.510;7.522;2023-02-23T15:57:30;58.97;;;18.92;;
58637;SDS011;54976;51.510;7.522;2023-02-23T16:00:43;61.38;;;18.52;;
58637;SDS011;54976;51.510;7.522;2023-02-23T16:04:00;68.47;;;19.45;;
58637;SDS011;54976;51.510;7.522;2023-02-23T16:07:14;63.13;;;18.85;;
58637;SDS011;54976;51.510;7.522;2023-02-23T16:10:20;69.25;;;20.48;;
58637;SDS011;54976;51.510;7.522;2023-02-23T16:13:24;64.97;;;18.83;;
58637;SDS011;54976;51.510;7.522;2023-02-23T16:16:26;75.30;;;18.80;;
58637;SDS011;54976;51.510;7.522;2023-02-23T16:19:27;68.05;;;19.00;;
58637;SDS011;54976;51.510;7.522;2023-02-23T16:22:28;74.82;;;20.02;;
58637;SDS011;54976;51.510;7.522;2023-02-23T16:25:31;68.95;;;19.35;;
58637;SDS011;54976;51.510;7.522;2023-02-23T16:28:33;71.78;;;20.08;;
58637;SDS011;54976;51.510;7.522;2023-02-23T16:31:43;72.82;;;20.75;;
58637;SDS011;54976;51.510;7.522;2023-02-23T16:34:47;91.78;;;21.48;;
58637;SDS011;54976;51.510;7.522;2023-02-23T16:41:01;86.68;;;22.55;;
58637;SDS011;54976;51.510;7.522;2023-02-23T16:44:04;89.78;;;21.85;;
58637;SDS011;54976;51.510;7.522;2023-02-23T16:53:16;81.90;;;20.60;;
58637;SDS011;54976;51.510;7.522;2023-02-23T16:56:18;76.43;;;20.55;;
58637;SDS011;54976;51.510;7.522;2023-02-23T16:59:20;84.88;;;22.52;;
58637;SDS011;54976;51.510;7.522;2023-02-23T17:02:22;86.00;;;21.48;;
58637;SDS011;54976;51.510;7.522;2023-02-23T17:05:23;84.65;;;20.63;;
58637;SDS011;54976;51.510;7.522;2023-02-23T17:08:24;94.22;;;22.23;;
58637;SDS011;54976;51.510;7.522;2023-02-23T17:11:25;84.18;;;19.65;;
58637;SDS011;54976;51.510;7.522;2023-02-23T17:14:26;70.63;;;19.90;;
58637;SDS011;54976;51.510;7.522;2023-02-23T17:17:27;77.25;;;20.05;;
58637;SDS011;54976;51.510;7.522;2023-02-23T17:20:27;81.47;;;20.58;;
58637;SDS011;54976;51.510;7.522;2023-02-23T17:23:29;76.53;;;21.75;;
58637;SDS011;54976;51.510;7.522;2023-02-23T17:26:50;82.47;;;18.98;;
58637;SDS011;54976;51.510;7.522;2023-02-23T17:29:51;82.15;;;20.10;;
58637;SDS011;54976;51.510;7.522;2023-02-23T17:32:52;89.65;;;21.02;;
58637;SDS011;54976;51.510;7.522;2023-02-23T17:35:54;104.00;;;21.08;;
58637;SDS011;54976;51.510;7.522;2023-02-23T17:38:55;95.78;;;22.08;;
58637;SDS011;54976;51.510;7.522;2023-02-23T17:41:57;92.38;;;21.17;;
58637;SDS011;54976;51.510;7.522;2023-02-23T17:44:58;104.60;;;21.77;;
58637;SDS011;54976;51.510;7.522;2023-02-23T17:48:00;95.72;;;21.92;;
58637;SDS011;54976;51.510;7.522;2023-02-23T17:51:02;113.97;;;24.52;;
58637;SDS011;54976;51.510;7.522;2023-02-23T17:54:05;90.88;;;20.63;;
58637;SDS011;54976;51.510;7.522;2023-02-23T17:57:05;115.10;;;23.13;;
58637;SDS011;54976;51.510;7.522;2023-02-23T18:00:06;147.77;;;31.35;;
58637;SDS011;54976;51.510;7.522;2023-02-23T18:03:11;120.75;;;23.08;;
58637;SDS011;54976;51.510;7.522;2023-02-23T18:06:12;104.47;;;24.33;;
58637;SDS011;54976;51.510;7.522;2023-02-23T18:09:13;145.13;;;36.13;;
58637;SDS011;54976;51.510;7.522;2023-02-23T18:12:14;115.18;;;29.35;;
58637;SDS011;54976;51.510;7.522;2023-02-23T18:15:15;104.88;;;23.23;;
58637;SDS011;54976;51.510;7.522;2023-02-23T18:18:17;111.63;;;24.63;;
58637;SDS011;54976;51.510;7.522;2023-02-23T18:21:19;96.25;;;22.55;;
58637;SDS011;54976;51.510;7.522;2023-02-23T18:24:24;109.18;;;23.45;;
58637;SDS011;54976;51.510;7.522;2023-02-23T18:27:26;112.18;;;24.45;;
58637;SDS011;54976;51.510;7.522;2023-02-23T18:30:27;103.30;;;22.90;;
58637;SDS011;54976;51.510;7.522;2023-02-23T18:33:27;114.00;;;22.95;;
58637;SDS011;54976;51.510;7.522;2023-02-23T18:36:32;95.07;;;22.50;;
58637;SDS011;54976;51.510;7.522;2023-02-23T18:39:34;90.07;;;21.52;;
58637;SDS011;54976;51.510;7.522;2023-02-23T18:42:35;94.28;;;22.20;;
58637;SDS011;54976;51.510;7.522;2023-02-23T18:45:35;111.70;;;23.60;;
58637;SDS011;54976;51.510;7.522;2023-02-23T18:48:36;94.35;;;22.83;;
58637;SDS011;54976;51.510;7.522;2023-02-23T18:51:38;84.00;;;21.30;;
58637;SDS011;54976;51.510;7.522;2023-02-23T18:54:38;95.70;;;22.70;;
58637;SDS011;54976;51.510;7.522;2023-02-23T18:57:39;87.85;;;21.48;;
58637;SDS011;54976;51.510;7.522;2023-02-23T19:00:40;90.43;;;21.70;;
58637;SDS011;54976;51.510;7.522;2023-02-23T19:03:41;92.90;;;22.00;;
58637;SDS011;54976;51.510;7.522;2023-02-23T19:06:44;94.75;;;22.27;;
58637;SDS011;54976;51.510;7.522;2023-02-23T19:09:46;81.07;;;21.67;;
58637;SDS011;54976;51.510;7.522;2023-02-23T19:12:46;81.30;;;21.40;;
58637;SDS011;54976;51.510;7.522;2023-02-23T19:15:47;90.60;;;21.10;;
58637;SDS011;54976;51.510;7.522;2023-02-23T19:18:48;85.97;;;21.75;;
58637;SDS011;54976;51.510;7.522;2023-02-23T19:21:49;95.95;;;23.00;;
58637;SDS011;54976;51.510;7.522;2023-02-23T19:24:50;80.93;;;21.02;;
58637;SDS011;54976;51.510;7.522;2023-02-23T19:27:51;87.97;;;22.05;;
58637;SDS011;54976;51.510;7.522;2023-02-23T19:31:02;94.03;;;22.98;;
58637;SDS011;54976;51.510;7.522;2023-02-23T19:34:04;87.15;;;22.23;;
58637;SDS011;54976;51.510;7.522;2023-02-23T19:37:07;89.40;;;22.13;;
58637;SDS011;54976;51.510;7.522;2023-02-23T19:40:08;86.88;;;23.23;;
58637;SDS011;54976;51.510;7.522;2023-02-23T19:43:09;85.75;;;22.58;;
58637;SDS011;54976;51.510;7.522;2023-02-23T19:46:12;90.97;;;23.17;;
58637;SDS011;54976;51.510;7.522;2023-02-23T19:49:15;87.93;;;21.85;;
58637;SDS011;54976;51.510;7.522;2023-02-23T19:52:16;94.72;;;24.20;;
58637;SDS011;54976;51.510;7.522;2023-02-23T19:55:16;81.90;;;22.25;;
58637;SDS011;54976;51.510;7.522;2023-02-23T19:58:19;118.20;;;22.25;;
58637;SDS011;54976;51.510;7.522;2023-02-23T20:01:20;91.63;;;22.27;;
58637;SDS011;54976;51.510;7.522;2023-02-23T20:04:22;121.25;;;24.10;;
58637;SDS011;54976;51.510;7.522;2023-02-23T20:07:23;115.72;;;23.02;;
58637;SDS011;54976;51.510;7.522;2023-02-23T20:10:24;127.60;;;24.70;;
58637;SDS011;54976;51.510;7.522;2023-02-23T20:13:27;111.72;;;24.35;;
58637;SDS011;54976;51.510;7.522;2023-02-23T20:16:28;101.30;;;22.85;;
58637;SDS011;54976;51.510;7.522;2023-02-23T20:19:29;93.78;;;21.92;;
58637;SDS011;54976;51.510;7.522;2023-02-23T20:22:30;91.50;;;23.55;;